地図

経路データ

SID SEASON NUMBER BASIN SUBBASIN NAME ISO_TIME NATURE LAT LON WMO_WIND WMO_PRES WMO_AGENCY TRACK_TYPE DIST2LAND LANDFALL IFLAG USA_AGENCY USA_ATCF_ID USA_LAT USA_LON USA_RECORD USA_STATUS USA_WIND USA_PRES USA_SSHS USA_R34_NE USA_R34_SE USA_R34_SW USA_R34_NW USA_R50_NE USA_R50_SE USA_R50_SW USA_R50_NW USA_R64_NE USA_R64_SE USA_R64_SW USA_R64_NW USA_POCI USA_ROCI USA_RMW USA_EYE TOKYO_LAT TOKYO_LON TOKYO_GRADE TOKYO_WIND TOKYO_PRES TOKYO_R50_DIR TOKYO_R50_LONG TOKYO_R50_SHORT TOKYO_R30_DIR TOKYO_R30_LONG TOKYO_R30_SHORT TOKYO_LAND CMA_LAT CMA_LON CMA_CAT CMA_WIND CMA_PRES HKO_LAT HKO_LON HKO_CAT HKO_WIND HKO_PRES NEWDELHI_LAT NEWDELHI_LON NEWDELHI_GRADE NEWDELHI_WIND NEWDELHI_PRES NEWDELHI_CI NEWDELHI_DP NEWDELHI_POCI REUNION_LAT REUNION_LON REUNION_TYPE REUNION_WIND REUNION_PRES REUNION_TNUM REUNION_CI REUNION_RMW REUNION_R34_NE REUNION_R34_SE REUNION_R34_SW REUNION_R34_NW REUNION_R50_NE REUNION_R50_SE REUNION_R50_SW REUNION_R50_NW REUNION_R64_NE REUNION_R64_SE REUNION_R64_SW REUNION_R64_NW BOM_LAT BOM_LON BOM_TYPE BOM_WIND BOM_PRES BOM_TNUM BOM_CI BOM_RMW BOM_R34_NE BOM_R34_SE BOM_R34_SW BOM_R34_NW BOM_R50_NE BOM_R50_SE BOM_R50_SW BOM_R50_NW BOM_R64_NE BOM_R64_SE BOM_R64_SW BOM_R64_NW BOM_ROCI BOM_POCI BOM_EYE BOM_POS_METHOD BOM_PRES_METHOD NADI_LAT NADI_LON NADI_CAT NADI_WIND NADI_PRES WELLINGTON_LAT WELLINGTON_LON WELLINGTON_WIND WELLINGTON_PRES DS824_LAT DS824_LON DS824_STAGE DS824_WIND DS824_PRES TD9636_LAT TD9636_LON TD9636_STAGE TD9636_WIND TD9636_PRES TD9635_LAT TD9635_LON TD9635_WIND TD9635_PRES TD9635_ROCI NEUMANN_LAT NEUMANN_LON NEUMANN_CLASS NEUMANN_WIND NEUMANN_PRES MLC_LAT MLC_LON MLC_CLASS MLC_WIND MLC_PRES USA_GUST BOM_GUST BOM_GUST_PER REUNION_GUST REUNION_GUST_PER USA_SEAHGT USA_SEARAD_NE USA_SEARAD_SE USA_SEARAD_SW USA_SEARAD_NW STORM_SPEED STORM_DIR
2022080S13114 2022 18 SI WA CHARLOTTE 2022-03-20 12:00:00 NR -13.1000 113.800 PROVISIONAL 489 489 O_____________ tcvitals SI212022 -13.1000 113.800 35 1001 0 60 50 150 1007 165 25 13 259
2022080S13114 2022 18 SI WA CHARLOTTE 2022-03-20 15:00:00 NR -13.2204 113.162 PROVISIONAL 515 515 P_____________ SI212022 -13.2204 113.162 37 997 0 70 112 1007 175 25 12 251
2022080S13114 2022 18 SI WA CHARLOTTE 2022-03-20 18:00:00 NR -13.5000 112.600 PROVISIONAL 564 564 O_____________ tcvitals SI212022 -13.5000 112.600 39 994 0 90 75 1007 185 25 13 230
2022080S13114 2022 18 SI WA CHARLOTTE 2022-03-20 21:00:00 NR -14.0273 112.163 PROVISIONAL 629 629 P_____________ SI212022 -14.0273 112.163 46 994 0 92 67 1007 185 22 14 215
2022080S13114 2022 18 SI WA CHARLOTTE 2022-03-21 00:00:00 NR -14.6000 111.800 PROVISIONAL 694 694 O_____________ tcvitals SI212022 -14.6000 111.800 54 994 0 60 95 60 1008 185 20 12 217
2022080S13114 2022 18 SI WA CHARLOTTE 2022-03-21 03:00:00 NR -14.9800 111.427 PROVISIONAL 739 739 P_____________ SI212022 -14.9800 111.427 57 992 0 65 102 62 1008 185 17 10 224
2022080S13114 2022 18 SI WA CHARLOTTE 2022-03-21 06:00:00 NR -15.3000 111.100 PROVISIONAL 775 766 O_____________ tcvitals SI212022 -15.3000 111.100 60 991 0 70 110 65 1008 185 14 9 218
2022080S13114 2022 18 SI WA CHARLOTTE 2022-03-21 09:00:00 NR -15.6798 110.857 PROVISIONAL 766 745 P_____________ SI212022 -15.6798 110.857 60 990 0 77 107 77 1008 185 14 9 215
2022080S13114 2022 18 SI WA CHARLOTTE 2022-03-21 12:00:00 NR -16.0000 110.600 PROVISIONAL 750 745 O_____________ tcvitals SI212022 -16.0000 110.600 60 990 0 85 105 90 60 1008 185 14 8 232
2022080S13114 2022 18 SI WA CHARLOTTE 2022-03-21 15:00:00 NR -16.1801 110.200 PROVISIONAL 752 752 P_____________ SI212022 -16.1801 110.200 67 984 1 87 107 90 57 1007 155 13 8 249
2022080S13114 2022 18 SI WA CHARLOTTE 2022-03-21 18:00:00 NR -16.3000 109.800 PROVISIONAL 766 763 O_____________ tcvitals SI212022 -16.3000 109.800 74 978 1 90 110 90 55 1006 126 12 7 248
2022080S13114 2022 18 SI WA CHARLOTTE 2022-03-21 21:00:00 NR -16.4499 109.520 PROVISIONAL 775 764 P_____________ SI212022 -16.4499 109.520 81 972 1 92 112 97 62 1006 126 12 6 238
2022080S13114 2022 18 SI WA CHARLOTTE 2022-03-22 00:00:00 NR -16.6000 109.300 PROVISIONAL 771 769 O_____________ tcvitals SI212022 -16.6000 109.300 89 967 2 95 115 105 70 1006 126 12 5 238
2022080S13114 2022 18 SI WA CHARLOTTE 2022-03-22 03:00:00 NR -16.7275 109.048 PROVISIONAL 783 773 P_____________ SI212022 -16.7275 109.048 89 967 2 100 117 105 77 1006 128 12 5 232
2022080S13114 2022 18 SI WA CHARLOTTE 2022-03-22 06:00:00 NR -16.9000 108.900 PROVISIONAL 773 742 O_____________ tcvitals SI212022 -16.9000 108.900 89 968 2 105 120 105 85 1006 130 12 5 190
2022080S13114 2022 18 SI WA CHARLOTTE 2022-03-22 09:00:00 NR -17.2000 108.970 PROVISIONAL 742 710 P_____________ SI212022 -17.2000 108.970 86 969 2 105 120 105 85 1006 128 12 6 162
2022080S13114 2022 18 SI WA CHARLOTTE 2022-03-22 12:00:00 NR -17.5000 109.100 PROVISIONAL 710 695 O_____________ tcvitals SI212022 -17.5000 109.100 84 970 2 105 120 105 85 1006 126 12 5 161
2022080S13114 2022 18 SI WA CHARLOTTE 2022-03-22 15:00:00 NR -17.6575 109.130 PROVISIONAL 695 687 P_____________ SI212022 -17.6575 109.130 82 971 1 107 125 112 87 1006 126 12 3 0
2022080S13114 2022 18 SI WA CHARLOTTE 2022-03-22 18:00:00 NR -17.8000 109.100 PROVISIONAL 687 672 O_____________ tcvitals SI212022 -17.8000 109.100 80 973 1 110 130 120 90 1006 126 12 4 190
2022080S13114 2022 18 SI WA CHARLOTTE 2022-03-22 21:00:00 NR -18.0124 109.052 PROVISIONAL 672 666 P_____________ SI212022 -18.0124 109.052 77 975 1 107 125 120 82 1007 138 12 5 201
2022080S13114 2022 18 SI WA CHARLOTTE 2022-03-23 00:00:00 NR -18.3000 108.900 PROVISIONAL 667 660 O_____________ tcvitals SI212022 -18.3000 108.900 74 978 1 105 120 120 75 1008 150 12 8 215
2022080S13114 2022 18 SI WA CHARLOTTE 2022-03-23 03:00:00 NR -18.6627 108.565 PROVISIONAL 667 667 P_____________ SI212022 -18.6627 108.565 72 980 1 95 123 115 57 1008 155 12 10 220
2022080S13114 2022 18 SI WA CHARLOTTE 2022-03-23 06:00:00 NR -19.1000 108.200 PROVISIONAL 680 664 O_____________ tcvitals SI212022 -19.1000 108.200 70 982 1 85 126 110 40 1008 160 12 12 207
2022080S13114 2022 18 SI WA CHARLOTTE 2022-03-23 09:00:00 NR -19.6898 108.000 PROVISIONAL 664 652 P_____________ SI212022 -19.6898 108.000 67 983 1 80 115 100 47 1007 162 12 11 201
2022080S13114 2022 18 SI WA CHARLOTTE 2022-03-23 12:00:00 NR -20.1000 107.800 PROVISIONAL 662 662 O_____________ tcvitals SI212022 -20.1000 107.800 64 985 1 75 105 90 55 1006 165 12 6 244
2022080S13114 2022 18 SI WA CHARLOTTE 2022-03-23 15:00:00 NR -19.9603 107.412 PROVISIONAL 704 704 P_____________ SI212022 -19.9603 107.412 57 988 0 90 112 97 65 1006 180 18 8 301
2022080S13114 2022 18 SI WA CHARLOTTE 2022-03-23 18:00:00 NR -19.7000 107.100 PROVISIONAL 747 747 O_____________ tcvitals SI212022 -19.7000 107.100 51 992 0 105 120 105 75 1006 195 25 4 313
2022080S13114 2022 18 SI WA CHARLOTTE 2022-03-23 21:00:00 NR -19.6799 107.090 PROVISIONAL 747 728 P_____________ SI212022 -19.6799 107.090 43 996 0 90 100 90 70 1006 190 25 2 153
2022080S13114 2022 18 SI WA CHARLOTTE 2022-03-24 00:00:00 NR -19.9000 107.200 PROVISIONAL 728 696 O_____________ tcvitals SI212022 -19.9000 107.200 35 1001 0 75 80 75 65 1006 185 25 8 168
2022080S13114 2022 18 SI WA CHARLOTTE 2022-03-24 03:00:00 NR -20.4250 107.265 PROVISIONAL 696 671 P_____________ SI212022 -20.4250 107.265 35 1001 0 75 80 75 60 1006 185 30 12 175
2022080S13114 2022 18 SI WA CHARLOTTE 2022-03-24 06:00:00 NR -21.1000 107.300 PROVISIONAL 671 656 O_____________ tcvitals SI212022 -21.1000 107.300 35 1001 0 75 80 75 55 1006 185 35 13 0
2022080S13114 2022 18 SI WA CHARLOTTE 2022-03-24 09:00:00 NR -21.6850 107.280 PROVISIONAL 656 651 P_____________ SI212022 -21.6850 107.280 32 1001 -1 1006 185 35 12 185
2022080S13114 2022 18 SI WA CHARLOTTE 2022-03-24 12:00:00 NR -22.3000 107.200 PROVISIONAL 658 657 O_____________ tcvitals SI212022 -22.3000 107.200 29 1002 -1 1006 185 35 13 190
2022080S13114 2022 18 SI WA CHARLOTTE 2022-03-24 15:00:00 NR -23.0001 107.028 PROVISIONAL 669 661 P_____________ SI212022 -23.0001 107.028 29 1002 -1 1006 192 35 14 191
2022080S13114 2022 18 SI WA CHARLOTTE 2022-03-24 18:00:00 NR -23.7000 106.900 PROVISIONAL 664 647 O_____________ tcvitals SI212022 -23.7000 106.900 29 1003 -1 1007 200 35 13 182
2022080S13114 2022 18 SI WA CHARLOTTE 2022-03-24 21:00:00 NR -24.3000 106.977 PROVISIONAL 647 635 P_____________ SI212022 -24.3000 106.977 29 1002 -1 1007 200 40 12 171
2022080S13114 2022 18 SI WA CHARLOTTE 2022-03-25 00:00:00 NR -24.9000 107.100 PROVISIONAL 635 623 O_____________ tcvitals SI212022 -24.9000 107.100 29 1002 -1 1007 200 45 12 177
2022080S13114 2022 18 SI WA CHARLOTTE 2022-03-25 03:00:00 NR -25.5248 107.049 PROVISIONAL 633 617 P_____________ SI212022 -25.5248 107.049 27 1003 -1 1007 200 47 14 0
2022080S13114 2022 18 SI WA CHARLOTTE 2022-03-25 06:00:00 NR -26.3000 107.100 PROVISIONAL 617 584 O_____________ tcvitals SI212022 -26.3000 107.100 25 1004 -1 1007 200 50 19 167
2022080S13114 2022 18 SI WA CHARLOTTE 2022-03-25 09:00:00 NR -27.4007 107.539 PROVISIONAL 587 572 P_____________ SI212022 -27.4007 107.539 25 1002 -1 1006 200 52 24 160
2022080S13114 2022 18 SI WA CHARLOTTE 2022-03-25 12:00:00 NR -28.5000 108.000 PROVISIONAL 577 577 O_____________ tcvitals SI212022 -28.5000 108.000 25 1000 -1 1006 200 55 20 166
2022080S13114 2022 18 SI WA CHARLOTTE 2022-03-25 15:00:00 NR -29.3571 108.112 PROVISIONAL 611 611 P_____________ SI212022 -29.3571 108.112 27 999 -1 1006 200 55 14 176
2022080S13114 2022 18 SI WA CHARLOTTE 2022-03-25 18:00:00 NR -29.9000 108.100 PROVISIONAL 625 625 O_____________ tcvitals SI212022 -29.9000 108.100 29 999 -1 1006 200 55 8 178
2022080S13114 2022 18 SI WA CHARLOTTE 2022-03-25 21:00:00 NR -30.1220 108.138 PROVISIONAL 632 619 P_____________ SI212022 -30.1220 108.138 29 998 -1 1006 200 55 1 140
2022080S13114 2022 18 SI WA CHARLOTTE 2022-03-26 00:00:00 NR -30.0000 108.200 PROVISIONAL 619 597 O_____________ tcvitals SI212022 -30.0000 108.200 29 998 -1 1006 200 55 5 17
2022080S13114 2022 18 SI WA CHARLOTTE 2022-03-26 03:00:00 NR -29.6201 108.314 PROVISIONAL 597 574 P_____________ SI212022 -29.6201 108.314 -5 9 14
2022080S13114 2022 18 SI WA CHARLOTTE 2022-03-26 06:00:00 NR -29.1064 108.458 PROVISIONAL 565 O_____________ tcvitals SI212022 -29.1065 108.458 -5 11 14

IBTrACS Databaseについて

本データベースは、米国NOAAが公開する1842年以降の世界の熱帯低気圧のベストトラックデータアーカイブInternational Best Track Archive for Climate Stewardship (IBTrACS)を、ウェブで閲覧しやすい形式に変換したものです。

最終更新日:2022-05-26